createdAt,value
2018-11-23T00:00:09.767Z,98.07
2018-11-23T00:02:37.949Z,89.57
2018-11-23T00:05:06.136Z,97.57
2018-11-23T00:07:34.264Z,100.20
2018-11-23T00:10:02.595Z,100.10
2018-11-23T00:12:30.848Z,104.63
2018-11-23T00:14:59.140Z,89.50
2018-11-23T00:17:27.429Z,99.70
2018-11-23T00:19:55.587Z,88.87
2018-11-23T00:22:23.719Z,96.20
2018-11-23T00:24:51.920Z,94.30
2018-11-23T00:27:20.115Z,94.57
2018-11-23T00:29:48.289Z,101.20
2018-11-23T00:32:16.524Z,89.50
2018-11-23T00:34:44.744Z,91.23
2018-11-23T00:37:12.920Z,106.00
2018-11-23T00:39:41.120Z,93.17
2018-11-23T00:42:09.332Z,89.63
2018-11-23T00:44:37.654Z,101.13
2018-11-23T00:47:05.904Z,97.10
2018-11-23T00:49:34.213Z,91.73
2018-11-23T00:52:02.378Z,96.47
2018-11-23T00:54:30.656Z,89.73
2018-11-23T00:56:58.865Z,99.70
2018-11-23T00:59:27.022Z,90.13
2018-11-23T01:02:00.665Z,88.10
2018-11-23T01:04:28.873Z,95.10
2018-11-23T01:06:57.106Z,85.10
2018-11-23T01:09:25.330Z,90.93
2018-11-23T01:11:53.555Z,93.23
2018-11-23T01:14:21.709Z,92.87
2018-11-23T01:16:49.842Z,97.73
2018-11-23T01:19:18.023Z,88.57
2018-11-23T01:21:46.200Z,88.50
2018-11-23T01:24:14.441Z,96.60
2018-11-23T01:26:42.807Z,91.37
2018-11-23T01:29:10.927Z,84.77
2018-11-23T01:31:39.108Z,99.23
2018-11-23T01:34:07.266Z,91.97
2018-11-23T01:36:35.509Z,85.30
2018-11-23T01:39:05.650Z,88.87
2018-11-23T01:41:33.922Z,92.60
2018-11-23T01:44:02.305Z,99.20
2018-11-23T01:46:30.659Z,96.83
2018-11-23T01:48:58.859Z,91.67
2018-11-23T01:51:27.136Z,88.53
2018-11-23T01:53:55.381Z,94.40
2018-11-23T01:56:23.553Z,90.23
2018-11-23T01:58:51.719Z,95.73
2018-11-23T02:01:19.946Z,97.63
2018-11-23T02:03:48.182Z,97.60
2018-11-23T02:06:16.364Z,89.30
2018-11-23T02:08:44.570Z,105.87
2018-11-23T02:11:12.786Z,98.37
2018-11-23T02:13:40.985Z,97.23
2018-11-23T02:16:09.205Z,101.13
2018-11-23T02:18:37.432Z,100.90
2018-11-23T02:21:05.954Z,94.37
2018-11-23T02:23:34.103Z,95.13
2018-11-23T02:26:02.295Z,93.23
2018-11-23T02:28:30.525Z,90.27
2018-11-23T02:31:02.965Z,100.00
2018-11-23T02:33:31.177Z,94.10
2018-11-23T02:35:59.393Z,94.87
2018-11-23T02:38:27.574Z,97.50
2018-11-23T02:40:55.804Z,95.90
2018-11-23T02:43:24.392Z,92.70
2018-11-23T02:45:52.730Z,89.97
2018-11-23T02:48:20.865Z,101.60
2018-11-23T02:50:49.099Z,96.67
2018-11-23T02:53:17.285Z,96.77
2018-11-23T02:55:45.493Z,91.83
2018-11-23T02:58:13.699Z,93.70
2018-11-23T03:00:41.857Z,98.33
2018-11-23T03:03:10.009Z,102.37
2018-11-23T03:05:38.164Z,99.70
2018-11-23T03:08:06.394Z,98.40
2018-11-23T03:10:34.567Z,100.43
2018-11-23T03:13:02.753Z,94.83
2018-11-23T03:15:31.318Z,92.00
2018-11-23T03:17:59.461Z,99.77
2018-11-23T03:20:27.631Z,92.10
2018-11-23T03:22:55.809Z,94.70
2018-11-23T03:25:24.033Z,99.97
2018-11-23T03:27:52.241Z,94.57
2018-11-23T03:30:21.687Z,102.87
2018-11-23T03:32:50.672Z,95.47
2018-11-23T03:35:19.386Z,94.57
2018-11-23T03:37:47.904Z,96.87
2018-11-23T03:40:16.109Z,99.90
2018-11-23T03:42:44.349Z,99.33
2018-11-23T03:45:13.473Z,95.90
2018-11-23T03:47:42.375Z,91.17
2018-11-23T03:50:11.610Z,95.50
2018-11-23T03:52:40.303Z,89.50
2018-11-23T03:55:08.460Z,101.67
2018-11-23T03:57:36.642Z,87.73
2018-11-23T04:00:17.262Z,89.73
2018-11-23T04:02:42.105Z,99.97
2018-11-23T04:05:10.360Z,103.07
2018-11-23T04:07:38.815Z,97.80
2018-11-23T04:10:08.143Z,84.63
2018-11-23T04:12:36.419Z,98.47
2018-11-23T04:15:04.924Z,89.77
2018-11-23T04:17:33.284Z,90.87
2018-11-23T04:20:01.508Z,99.47
2018-11-23T04:22:29.740Z,91.70
2018-11-23T04:24:57.910Z,92.30
2018-11-23T04:27:26.138Z,87.53
2018-11-23T04:29:54.377Z,96.37
2018-11-23T04:32:22.588Z,89.50
2018-11-23T04:34:50.697Z,85.53
2018-11-23T04:37:18.996Z,99.43
2018-11-23T04:39:47.337Z,91.80
2018-11-23T04:42:15.597Z,95.93
2018-11-23T04:44:43.753Z,88.60
2018-11-23T04:47:12.097Z,84.47
2018-11-23T04:49:40.387Z,90.53
2018-11-23T04:52:08.722Z,85.43
2018-11-23T04:54:37.121Z,97.07
2018-11-23T04:57:05.513Z,90.97
2018-11-23T04:59:33.798Z,103.80
2018-11-23T05:02:02.076Z,102.83
2018-11-23T05:04:30.234Z,89.30
2018-11-23T05:06:58.472Z,96.00
2018-11-23T05:09:26.764Z,93.07
2018-11-23T05:11:55.336Z,97.23
2018-11-23T05:14:23.512Z,89.67
2018-11-23T05:16:51.772Z,91.03
2018-11-23T05:19:19.964Z,98.20
2018-11-23T05:21:48.443Z,92.37
2018-11-23T05:24:16.604Z,87.10
2018-11-23T05:26:45.025Z,85.83
2018-11-23T05:29:13.315Z,92.90
2018-11-23T05:31:41.491Z,90.07
2018-11-23T05:34:09.695Z,95.40
2018-11-23T05:36:37.851Z,90.70
2018-11-23T05:39:07.797Z,101.97
2018-11-23T05:41:36.001Z,94.27
2018-11-23T05:46:38.601Z,94.43
2018-11-23T05:49:06.807Z,92.70
2018-11-23T05:51:35.029Z,96.13
2018-11-23T05:54:03.241Z,88.17
2018-11-23T05:56:31.427Z,92.70
2018-11-23T05:58:59.609Z,89.33
2018-11-23T06:01:27.827Z,96.17
2018-11-23T06:03:56.189Z,94.30
2018-11-23T06:06:24.418Z,87.97
2018-11-23T06:08:52.657Z,88.47
2018-11-23T06:11:20.948Z,94.40
2018-11-23T06:13:49.139Z,91.10
2018-11-23T06:16:17.317Z,89.37
2018-11-23T06:18:45.513Z,91.87
2018-11-23T06:21:13.831Z,91.50
2018-11-23T06:23:42.045Z,87.83
2018-11-23T06:26:14.596Z,86.20
2018-11-23T06:28:42.868Z,91.63
2018-11-23T06:31:11.276Z,90.87
2018-11-23T06:33:41.762Z,96.73
2018-11-23T06:36:09.900Z,93.30
2018-11-23T06:38:38.126Z,95.27
2018-11-23T06:41:10.563Z,92.57
2018-11-23T06:43:35.323Z,97.40
2018-11-23T06:46:04.484Z,88.93
2018-11-23T06:48:32.657Z,94.83
2018-11-23T06:51:00.861Z,94.90
2018-11-23T06:53:29.042Z,87.77
2018-11-23T06:55:57.887Z,92.23
2018-11-23T06:58:26.327Z,84.13
2018-11-23T07:00:54.872Z,82.27
2018-11-23T07:03:23.074Z,87.43
2018-11-23T07:05:51.272Z,87.83
2018-11-23T07:08:23.099Z,88.40
2018-11-23T07:10:51.290Z,88.50
2018-11-23T07:13:19.529Z,92.80
2018-11-23T07:15:47.655Z,92.27
2018-11-23T07:18:15.906Z,93.13
2018-11-23T07:20:44.092Z,91.53
2018-11-23T07:23:12.357Z,94.73
2018-11-23T07:25:40.588Z,91.40
2018-11-23T07:28:11.353Z,92.43
2018-11-23T07:30:37.034Z,92.67
2018-11-23T07:33:05.721Z,98.97
2018-11-23T07:35:33.980Z,92.63
2018-11-23T07:38:02.222Z,94.80
2018-11-23T07:40:43.501Z,91.63
2018-11-23T07:43:11.655Z,92.17
2018-11-23T07:45:39.865Z,89.30
2018-11-23T07:48:08.532Z,97.03
2018-11-23T07:50:36.840Z,93.40
2018-11-23T07:53:05.100Z,94.93
2018-11-23T07:55:33.319Z,101.30
2018-11-23T07:58:01.527Z,88.40
2018-11-23T08:00:29.713Z,97.30
2018-11-23T08:02:57.916Z,92.13
2018-11-23T08:05:26.139Z,105.40
2018-11-23T08:07:54.656Z,101.50
2018-11-23T08:10:22.100Z,90.97
2018-11-23T08:12:51.000Z,94.63
2018-11-23T08:15:23.600Z,97.17
2018-11-23T08:17:51.848Z,98.37
2018-11-23T08:20:21.198Z,99.43
2018-11-23T08:22:49.447Z,102.20
2018-11-23T08:25:19.036Z,93.43
2018-11-23T08:27:48.026Z,95.13
2018-11-23T08:30:18.560Z,93.23
2018-11-23T08:32:46.728Z,97.83
2018-11-23T08:35:15.020Z,97.13
2018-11-23T08:37:43.331Z,90.83
2018-11-23T08:40:17.151Z,101.73
2018-11-23T08:42:46.215Z,95.87
2018-11-23T08:45:16.620Z,85.87
2018-11-23T08:47:44.817Z,91.27
2018-11-23T08:50:16.365Z,91.87
2018-11-23T08:52:44.557Z,84.30
2018-11-23T08:55:13.676Z,89.13
2018-11-23T08:57:42.195Z,82.77
2018-11-23T09:00:15.818Z,98.90
2018-11-23T09:02:45.205Z,100.00
2018-11-23T09:05:13.647Z,105.37
2018-11-23T09:07:42.161Z,102.90
2018-11-23T09:10:13.004Z,97.47
2018-11-23T09:12:41.376Z,101.67
2018-11-23T09:15:11.165Z,100.50
2018-11-23T09:17:39.440Z,91.30
2018-11-23T09:20:08.745Z,88.40
2018-11-23T09:22:36.908Z,99.87
2018-11-23T09:25:06.508Z,96.23
2018-11-23T09:27:34.719Z,95.13
2018-11-23T09:30:03.003Z,97.73
2018-11-23T09:32:31.172Z,92.37
2018-11-23T09:34:59.449Z,91.30
2018-11-23T09:37:27.637Z,86.93
2018-11-23T09:39:55.904Z,97.77
2018-11-23T09:42:24.048Z,96.90
2018-11-23T09:44:52.251Z,88.30
2018-11-23T09:47:20.480Z,84.87
2018-11-23T09:49:48.700Z,92.40
2018-11-23T09:52:17.061Z,84.87
2018-11-23T09:54:45.253Z,85.27
2018-11-23T09:57:13.527Z,86.10
2018-11-23T09:59:41.676Z,91.13
2018-11-23T10:02:09.905Z,95.90
2018-11-23T10:04:38.109Z,94.50
2018-11-23T10:07:06.497Z,86.83
2018-11-23T10:09:34.614Z,93.77
2018-11-23T10:12:02.884Z,85.63
2018-11-23T10:14:31.053Z,86.77
2018-11-23T10:16:59.286Z,98.37
2018-11-23T10:19:30.395Z,89.40
2018-11-23T10:21:58.600Z,86.10
2018-11-23T10:24:26.806Z,94.53
2018-11-23T10:26:54.952Z,88.33
2018-11-23T10:29:23.556Z,84.17
2018-11-23T10:31:51.785Z,85.00
2018-11-23T10:34:19.931Z,76.57
2018-11-23T10:36:48.108Z,81.10
2018-11-23T10:39:16.587Z,87.53
2018-11-23T10:41:44.919Z,87.80
2018-11-23T10:44:13.107Z,81.57
2018-11-23T10:46:41.327Z,84.73
2018-11-23T10:49:09.483Z,80.33
2018-11-23T10:51:37.712Z,82.17
2018-11-23T10:54:05.959Z,78.47
2018-11-23T10:56:34.183Z,86.13
2018-11-23T10:59:02.300Z,80.80
2018-11-23T11:01:35.964Z,81.47
2018-11-23T11:04:09.457Z,84.23
2018-11-23T11:06:43.111Z,92.23
2018-11-23T11:09:11.518Z,87.43
2018-11-23T11:11:39.969Z,82.80
2018-11-23T11:14:08.396Z,83.70
2018-11-23T11:16:37.486Z,87.00
2018-11-23T11:19:06.192Z,79.50
2018-11-23T11:21:34.578Z,87.00
2018-11-23T11:24:02.879Z,95.00
2018-11-23T11:26:31.048Z,81.83
2018-11-23T11:28:59.240Z,77.27
2018-11-23T11:31:27.764Z,84.67
2018-11-23T11:33:55.948Z,84.97
2018-11-23T11:36:24.174Z,84.27
2018-11-23T11:38:52.323Z,80.93
2018-11-23T11:41:20.513Z,71.67
2018-11-23T11:43:48.688Z,83.07
2018-11-23T11:46:16.895Z,79.57
2018-11-23T11:48:45.027Z,76.57
2018-11-23T11:51:13.287Z,72.77
2018-11-23T11:53:41.554Z,70.57
2018-11-23T11:56:09.724Z,77.27
2018-11-23T11:58:37.921Z,79.37
2018-11-23T12:01:06.095Z,83.47
2018-11-23T12:03:34.267Z,75.30
2018-11-23T12:06:02.449Z,77.33
2018-11-23T12:08:30.621Z,82.87
2018-11-23T12:10:58.750Z,74.37
2018-11-23T12:13:26.949Z,73.80
2018-11-23T12:15:55.243Z,78.33
2018-11-23T12:18:23.474Z,83.07
2018-11-23T12:20:51.614Z,72.43
2018-11-23T12:23:19.838Z,82.17
2018-11-23T12:25:47.949Z,79.67
2018-11-23T12:28:16.317Z,82.67
2018-11-23T12:30:44.546Z,75.80
2018-11-23T12:33:12.780Z,77.03
2018-11-23T12:35:41.052Z,82.20
2018-11-23T12:38:09.288Z,78.13
2018-11-23T12:40:37.472Z,87.43
2018-11-23T12:43:05.672Z,83.47
2018-11-23T12:45:33.871Z,83.03
2018-11-23T12:48:02.077Z,81.50
2018-11-23T12:50:30.310Z,87.03
2018-11-23T12:53:05.824Z,80.00
2018-11-23T12:55:26.734Z,79.60
2018-11-23T12:57:55.149Z,87.43
2018-11-23T13:00:26.282Z,87.97
2018-11-23T13:02:56.040Z,88.70
2018-11-23T13:05:25.021Z,89.77
2018-11-23T13:07:54.282Z,90.93
2018-11-23T13:10:23.377Z,89.37
2018-11-23T13:12:51.715Z,85.97
2018-11-23T13:15:20.146Z,93.03
2018-11-23T13:17:48.661Z,83.27
2018-11-23T13:20:17.100Z,86.10
2018-11-23T13:31:22.089Z,84.93
2018-11-23T13:33:50.457Z,72.47
2018-11-23T13:36:18.597Z,76.47
2018-11-23T13:38:46.802Z,67.77
2018-11-23T13:41:14.964Z,73.87
2018-11-23T13:43:43.169Z,69.60
2018-11-23T13:46:11.300Z,79.20
2018-11-23T13:48:39.510Z,69.63
2018-11-23T13:51:07.734Z,66.83
2018-11-23T13:53:35.924Z,74.90
2018-11-23T13:56:04.701Z,72.63
2018-11-23T13:58:32.831Z,68.03
2018-11-23T14:01:01.040Z,72.57
2018-11-23T14:03:29.170Z,72.17
2018-11-23T14:05:57.402Z,76.17
2018-11-23T14:08:25.563Z,70.30
2018-11-23T14:10:53.902Z,71.80
2018-11-23T14:13:22.127Z,64.37
2018-11-23T14:15:50.394Z,71.50
2018-11-23T14:18:18.615Z,69.40
2018-11-23T14:20:47.596Z,66.77
2018-11-23T14:23:15.792Z,61.00
2018-11-23T14:25:43.966Z,60.40
2018-11-23T14:28:12.240Z,72.70
2018-11-23T14:30:40.420Z,63.27
2018-11-23T14:33:08.669Z,63.73
2018-11-23T14:35:36.940Z,71.57
2018-11-23T14:38:05.221Z,69.47
2018-11-23T14:40:33.384Z,75.90
2018-11-23T14:43:01.610Z,77.40
2018-11-23T14:45:33.977Z,73.63
2018-11-23T14:48:04.564Z,72.57
2018-11-23T14:50:33.917Z,75.33
2018-11-23T14:53:02.280Z,69.10
2018-11-23T14:55:30.816Z,65.90
2018-11-23T14:57:59.669Z,67.40
2018-11-23T15:00:32.639Z,68.37
2018-11-23T15:03:01.751Z,65.70
2018-11-23T15:05:29.956Z,69.73
2018-11-23T15:07:58.140Z,66.73
2018-11-23T15:10:27.694Z,64.73
2018-11-23T15:12:57.372Z,69.73
2018-11-23T15:15:27.114Z,67.77
2018-11-23T15:17:56.021Z,68.10
2018-11-23T15:20:26.029Z,66.83
2018-11-23T15:22:57.904Z,65.67
2018-11-23T15:25:26.107Z,74.77
2018-11-23T15:27:54.337Z,71.70
2018-11-23T15:30:24.189Z,67.90
2018-11-23T15:32:52.489Z,73.00
2018-11-23T15:35:20.744Z,63.03
2018-11-23T15:37:49.029Z,65.37
2018-11-23T15:40:19.696Z,71.60
2018-11-23T15:42:48.574Z,63.30
2018-11-23T15:45:19.128Z,65.50
2018-11-23T15:47:47.357Z,69.23
2018-11-23T15:50:16.972Z,72.20
2018-11-23T15:52:45.699Z,67.83
2018-11-23T15:55:16.505Z,67.13
2018-11-23T15:57:45.399Z,67.53
2018-11-23T16:00:15.682Z,68.90
2018-11-23T16:02:44.748Z,68.60
2018-11-23T16:05:13.296Z,62.97
2018-11-23T16:07:41.512Z,63.10
2018-11-23T16:10:13.163Z,71.40
2018-11-23T16:12:45.239Z,76.37
2018-11-23T16:15:13.347Z,80.30
2018-11-23T16:17:41.614Z,67.97
2018-11-23T16:20:13.287Z,70.70
2018-11-23T16:22:41.696Z,68.10
2018-11-23T16:25:11.113Z,70.30
2018-11-23T16:27:39.997Z,63.67
2018-11-23T16:30:11.877Z,61.00
2018-11-23T16:32:40.116Z,66.90
2018-11-23T16:35:08.349Z,66.47
2018-11-23T16:37:36.483Z,71.10
2018-11-23T16:40:06.264Z,66.67
2018-11-23T16:42:34.459Z,67.83
2018-11-23T16:45:02.709Z,67.17
2018-11-23T16:47:30.933Z,76.70
2018-11-23T16:49:59.173Z,70.57
2018-11-23T16:52:27.389Z,67.67
2018-11-23T16:54:55.591Z,67.80
2018-11-23T16:57:23.734Z,64.60
2018-11-23T16:59:51.907Z,65.13
2018-11-23T17:02:20.061Z,63.20
2018-11-23T17:04:48.386Z,66.43
2018-11-23T17:07:16.524Z,66.10
2018-11-23T17:09:44.701Z,65.70
2018-11-23T17:12:12.829Z,59.43
2018-11-23T17:14:41.027Z,59.57
2018-11-23T17:17:09.178Z,63.70
2018-11-23T17:19:37.486Z,59.93
2018-11-23T17:22:06.139Z,60.63
2018-11-23T17:24:34.348Z,61.23
2018-11-23T17:27:02.501Z,63.03
2018-11-23T17:29:30.704Z,66.60
2018-11-23T17:31:59.035Z,63.37
2018-11-23T17:34:27.213Z,61.00
2018-11-23T17:36:55.340Z,66.60
2018-11-23T17:39:23.504Z,63.97
2018-11-23T17:41:51.620Z,62.20
2018-11-23T17:44:19.860Z,62.03
2018-11-23T17:46:48.004Z,60.97
2018-11-23T17:49:16.168Z,65.00
2018-11-23T17:51:44.375Z,59.43
2018-11-23T17:54:12.587Z,59.43
2018-11-23T17:56:40.717Z,60.73
2018-11-23T17:59:08.938Z,60.97
2018-11-23T18:01:37.076Z,61.50
2018-11-23T18:04:05.497Z,57.97
2018-11-23T18:06:33.673Z,55.50
2018-11-23T18:09:01.962Z,56.37
2018-11-23T18:11:30.248Z,61.60
2018-11-23T18:13:58.630Z,57.67
2018-11-23T18:16:26.832Z,52.90
2018-11-23T18:18:55.026Z,56.57
2018-11-23T18:21:23.272Z,50.90
2018-11-23T18:23:51.807Z,54.60
2018-11-23T18:26:20.089Z,50.90
2018-11-23T18:28:48.392Z,63.40
2018-11-23T18:31:16.789Z,65.67
2018-11-23T18:33:44.976Z,64.50
2018-11-23T18:36:13.300Z,60.90
2018-11-23T18:38:41.631Z,57.47
2018-11-23T18:41:09.896Z,57.70
2018-11-23T18:43:38.121Z,55.20
2018-11-23T18:46:06.457Z,59.30
2018-11-23T18:48:34.609Z,60.37
2018-11-23T18:51:02.909Z,53.90
2018-11-23T18:53:31.078Z,57.93
2018-11-23T18:55:59.337Z,61.77
2018-11-23T18:58:27.481Z,60.23
2018-11-23T19:00:55.757Z,60.23
2018-11-23T19:03:23.924Z,59.03
2018-11-23T19:05:52.153Z,60.27
2018-11-23T19:08:20.266Z,58.07
2018-11-23T19:10:48.452Z,57.23
2018-11-23T19:13:16.584Z,56.20
2018-11-23T19:15:44.900Z,62.43
2018-11-23T19:18:13.050Z,61.30
2018-11-23T19:20:41.220Z,57.60
2018-11-23T19:23:09.345Z,56.40
2018-11-23T19:25:38.415Z,59.23
2018-11-23T19:28:06.668Z,59.60
2018-11-23T19:30:34.789Z,62.03
2018-11-23T19:33:02.953Z,63.70
2018-11-23T19:35:31.064Z,62.60
2018-11-23T19:37:59.336Z,72.77
2018-11-23T19:40:27.470Z,78.47
2018-11-23T19:42:55.708Z,69.73
2018-11-23T19:45:30.617Z,65.40
2018-11-23T19:47:58.825Z,65.83
2018-11-23T19:50:27.021Z,61.90
2018-11-23T19:52:55.244Z,64.23
2018-11-23T19:55:23.548Z,67.87
2018-11-23T19:57:51.879Z,62.63
2018-11-23T20:00:23.062Z,60.60
2018-11-23T20:02:51.320Z,61.50
2018-11-23T20:05:19.504Z,66.80
2018-11-23T20:07:48.820Z,65.60
2018-11-23T20:10:18.707Z,65.33
2018-11-23T20:12:47.817Z,60.20
2018-11-23T20:15:17.028Z,60.63
2018-11-23T20:17:45.384Z,64.63
2018-11-23T20:20:14.487Z,63.40
2018-11-23T20:22:42.907Z,61.70
2018-11-23T20:25:14.938Z,67.47
2018-11-23T20:27:43.306Z,65.93
2018-11-23T20:30:12.524Z,70.57
2018-11-23T20:32:40.758Z,62.63
2018-11-23T20:35:11.102Z,60.17
2018-11-23T20:37:39.298Z,71.73
2018-11-23T20:40:13.597Z,67.37
2018-11-23T20:42:41.880Z,72.60
2018-11-23T20:45:10.893Z,67.63
2018-11-23T20:47:39.500Z,65.67
2018-11-23T20:50:09.118Z,65.30
2018-11-23T20:52:37.433Z,68.57
2018-11-23T20:55:07.351Z,65.63
2018-11-23T20:57:35.625Z,65.20
2018-11-23T21:00:06.373Z,66.83
2018-11-23T21:02:34.661Z,68.70
2018-11-23T21:05:02.836Z,67.63
2018-11-23T21:07:30.976Z,66.30
2018-11-23T21:09:59.260Z,60.87
2018-11-23T21:12:27.392Z,63.90
2018-11-23T21:14:55.716Z,66.53
2018-11-23T21:17:23.911Z,65.60
2018-11-23T21:19:52.110Z,69.83
2018-11-23T21:22:20.250Z,62.90
2018-11-23T21:24:48.528Z,67.03
2018-11-23T21:27:16.717Z,72.37
2018-11-23T21:29:44.911Z,70.70
2018-11-23T21:32:13.069Z,67.93
2018-11-23T21:34:41.365Z,67.97
2018-11-23T21:37:09.471Z,72.80
2018-11-23T21:39:37.667Z,68.83
2018-11-23T21:42:05.858Z,73.40
2018-11-23T21:44:34.267Z,70.80
2018-11-23T21:47:02.453Z,67.97
2018-11-23T21:49:30.747Z,64.97
2018-11-23T21:51:59.049Z,75.33
2018-11-23T21:54:27.323Z,77.77
2018-11-23T21:56:55.544Z,73.80
2018-11-23T21:59:23.773Z,71.53
2018-11-23T22:01:52.025Z,70.53
2018-11-23T22:04:20.384Z,78.40
2018-11-23T22:06:48.855Z,75.60
2018-11-23T22:09:17.032Z,83.07
2018-11-23T22:11:52.222Z,77.63
2018-11-23T22:14:13.385Z,81.50
2018-11-23T22:16:41.582Z,76.20
2018-11-23T22:19:09.805Z,79.03
2018-11-23T22:21:37.953Z,83.97
2018-11-23T22:24:06.189Z,85.73
2018-11-23T22:26:34.301Z,87.37
2018-11-23T22:29:02.490Z,90.40
2018-11-23T22:31:30.652Z,85.37
2018-11-23T22:33:58.825Z,91.67
2018-11-23T22:36:26.960Z,86.57
2018-11-23T22:38:55.165Z,82.77
2018-11-23T22:41:23.408Z,88.63
2018-11-23T22:43:51.597Z,90.87
2018-11-23T22:46:19.908Z,82.20
2018-11-23T22:48:48.072Z,84.83
2018-11-23T22:51:16.270Z,76.53
2018-11-23T22:53:44.436Z,84.00
2018-11-23T22:56:12.601Z,79.43
2018-11-23T22:58:40.696Z,82.30
2018-11-23T23:01:08.900Z,81.00
2018-11-23T23:03:37.122Z,77.93
2018-11-23T23:06:05.456Z,82.10
2018-11-23T23:08:33.580Z,79.87
2018-11-23T23:11:01.900Z,82.93
2018-11-23T23:13:30.097Z,80.17
2018-11-23T23:15:58.267Z,78.00
2018-11-23T23:18:26.405Z,75.53
2018-11-23T23:20:54.532Z,79.23
2018-11-23T23:23:22.650Z,69.53
2018-11-23T23:25:50.805Z,78.83
2018-11-23T23:28:18.972Z,78.17
2018-11-23T23:30:47.107Z,70.07
2018-11-23T23:33:15.229Z,86.43
2018-11-23T23:35:43.386Z,88.87
2018-11-23T23:38:11.472Z,85.07
2018-11-23T23:40:39.708Z,87.27
2018-11-23T23:43:07.859Z,86.77
2018-11-23T23:45:36.053Z,86.90
2018-11-23T23:48:04.473Z,88.50
2018-11-23T23:50:32.623Z,79.50
2018-11-23T23:53:00.772Z,74.93
2018-11-23T23:55:28.880Z,72.27
2018-11-23T23:57:57.016Z,77.97
